sensor_id;sensor_type;location;lat;lon;timestamp;pressure;altitude;pressure_sealevel;temperature;humidity
47154;BME280;32907;41.412;2.164;2023-04-05T00:01:13;100762.19;;;19.02;38.95
47154;BME280;32907;41.412;2.164;2023-04-05T00:03:41;100706.06;;;18.71;38.92
47154;BME280;32907;41.412;2.164;2023-04-05T00:06:10;100750.75;;;18.99;39.03
47154;BME280;32907;41.412;2.164;2023-04-05T00:08:39;100708.78;;;18.71;39.15
47154;BME280;32907;41.412;2.164;2023-04-05T00:11:07;100710.94;;;18.75;39.41
47154;BME280;32907;41.412;2.164;2023-04-05T00:13:35;100704.69;;;18.74;39.25
47154;BME280;32907;41.412;2.164;2023-04-05T00:16:05;100722.84;;;18.84;39.39
47154;BME280;32907;41.412;2.164;2023-04-05T00:18:33;100752.94;;;19.03;39.48
47154;BME280;32907;41.412;2.164;2023-04-05T00:21:02;100722.88;;;18.79;39.75
47154;BME280;32907;41.412;2.164;2023-04-05T00:23:30;100714.72;;;18.73;39.37
47154;BME280;32907;41.412;2.164;2023-04-05T00:26:06;100735.88;;;18.87;39.42
47154;BME280;32907;41.412;2.164;2023-04-05T00:28:35;100731.25;;;18.87;39.74
47154;BME280;32907;41.412;2.164;2023-04-05T00:31:05;100687.06;;;18.56;39.71
47154;BME280;32907;41.412;2.164;2023-04-05T00:33:33;100732.59;;;18.95;39.64
47154;BME280;32907;41.412;2.164;2023-04-05T00:36:27;100746.94;;;19.00;39.31
47154;BME280;32907;41.412;2.164;2023-04-05T00:38:54;100714.16;;;18.77;39.29
47154;BME280;32907;41.412;2.164;2023-04-05T00:41:23;100748.31;;;18.98;39.62
47154;BME280;32907;41.412;2.164;2023-04-05T00:43:50;100741.25;;;18.97;40.04
47154;BME280;32907;41.412;2.164;2023-04-05T00:46:19;100735.84;;;18.97;39.40
47154;BME280;32907;41.412;2.164;2023-04-05T00:48:47;100731.50;;;18.91;39.69
47154;BME280;32907;41.412;2.164;2023-04-05T00:51:19;100726.63;;;18.88;39.34
47154;BME280;32907;41.412;2.164;2023-04-05T00:53:48;100719.31;;;18.83;39.54
47154;BME280;32907;41.412;2.164;2023-04-05T00:56:19;100690.88;;;18.65;39.52
47154;BME280;32907;41.412;2.164;2023-04-05T00:58:48;100699.53;;;18.67;39.43
47154;BME280;32907;41.412;2.164;2023-04-05T01:01:19;100745.66;;;18.93;39.73
47154;BME280;32907;41.412;2.164;2023-04-05T01:03:57;100688.97;;;18.61;39.56
47154;BME280;32907;41.412;2.164;2023-04-05T01:06:50;100739.41;;;18.87;39.60
47154;BME280;32907;41.412;2.164;2023-04-05T01:09:32;100731.78;;;18.84;39.51
47154;BME280;32907;41.412;2.164;2023-04-05T01:12:05;100728.03;;;18.85;39.79
47154;BME280;32907;41.412;2.164;2023-04-05T01:14:45;100701.16;;;18.68;39.63
47154;BME280;32907;41.412;2.164;2023-04-05T01:17:13;100732.88;;;18.88;39.51
47154;BME280;32907;41.412;2.164;2023-04-05T01:19:43;100687.06;;;18.61;39.68
47154;BME280;32907;41.412;2.164;2023-04-05T01:25:08;100717.69;;;18.87;39.74
47154;BME280;32907;41.412;2.164;2023-04-05T01:30:41;100723.91;;;18.88;39.62
47154;BME280;32907;41.412;2.164;2023-04-05T01:38:48;100718.53;;;18.78;39.74
47154;BME280;32907;41.412;2.164;2023-04-05T01:41:18;100704.94;;;18.78;39.84
47154;BME280;32907;41.412;2.164;2023-04-05T01:43:46;100686.78;;;18.68;39.92
47154;BME280;32907;41.412;2.164;2023-04-05T01:46:14;100694.66;;;18.69;39.79
47154;BME280;32907;41.412;2.164;2023-04-05T01:48:43;100698.44;;;18.73;39.64
47154;BME280;32907;41.412;2.164;2023-04-05T01:51:10;100729.06;;;18.89;39.78
47154;BME280;32907;41.412;2.164;2023-04-05T01:53:41;100685.44;;;18.65;39.83
47154;BME280;32907;41.412;2.164;2023-04-05T01:56:10;100657.22;;;18.51;39.66
47154;BME280;32907;41.412;2.164;2023-04-05T01:58:38;100722.00;;;18.88;39.60
47154;BME280;32907;41.412;2.164;2023-04-05T02:01:06;100727.19;;;18.85;40.04
47154;BME280;32907;41.412;2.164;2023-04-05T02:03:34;100726.38;;;18.84;39.47
47154;BME280;32907;41.412;2.164;2023-04-05T02:06:03;100734.00;;;18.82;39.54
47154;BME280;32907;41.412;2.164;2023-04-05T02:08:31;100644.81;;;18.25;39.90
47154;BME280;32907;41.412;2.164;2023-04-05T02:10:59;100698.19;;;18.60;39.95
47154;BME280;32907;41.412;2.164;2023-04-05T02:13:29;100689.50;;;18.58;40.03
47154;BME280;32907;41.412;2.164;2023-04-05T02:15:57;100676.50;;;18.44;40.05
47154;BME280;32907;41.412;2.164;2023-04-05T02:18:25;100723.41;;;18.76;40.27
47154;BME280;32907;41.412;2.164;2023-04-05T02:21:01;100695.75;;;18.58;40.23
47154;BME280;32907;41.412;2.164;2023-04-05T02:23:30;100713.66;;;18.75;40.29
47154;BME280;32907;41.412;2.164;2023-04-05T02:25:58;100703.88;;;18.68;40.14
47154;BME280;32907;41.412;2.164;2023-04-05T02:28:26;100662.69;;;18.46;40.19
47154;BME280;32907;41.412;2.164;2023-04-05T02:30:54;100706.88;;;18.77;40.06
47154;BME280;32907;41.412;2.164;2023-04-05T02:33:22;100681.06;;;18.59;40.02
47154;BME280;32907;41.412;2.164;2023-04-05T02:35:52;100706.88;;;18.72;40.16
47154;BME280;32907;41.412;2.164;2023-04-05T02:38:20;100706.88;;;18.72;40.18
47154;BME280;32907;41.412;2.164;2023-04-05T02:40:48;100700.06;;;18.75;39.95
47154;BME280;32907;41.412;2.164;2023-04-05T02:43:16;100704.41;;;18.76;39.90
47154;BME280;32907;41.412;2.164;2023-04-05T02:45:44;100674.28;;;18.62;40.05
47154;BME280;32907;41.412;2.164;2023-04-05T02:48:14;100661.81;;;18.51;40.22
47154;BME280;32907;41.412;2.164;2023-04-05T02:50:49;100707.94;;;18.76;40.14
47154;BME280;32907;41.412;2.164;2023-04-05T02:53:18;100647.50;;;18.35;40.40
47154;BME280;32907;41.412;2.164;2023-04-05T02:55:54;100677.84;;;18.57;40.02
47154;BME280;32907;41.412;2.164;2023-04-05T02:58:24;100695.75;;;18.63;40.14
47154;BME280;32907;41.412;2.164;2023-04-05T03:00:52;100700.06;;;18.64;40.47
47154;BME280;32907;41.412;2.164;2023-04-05T03:03:28;100682.44;;;18.57;40.11
47154;BME280;32907;41.412;2.164;2023-04-05T03:05:58;100690.59;;;18.62;40.56
47154;BME280;32907;41.412;2.164;2023-04-05T03:08:41;100657.78;;;18.43;40.51
47154;BME280;32907;41.412;2.164;2023-04-05T03:11:13;100688.69;;;18.57;40.56
47154;BME280;32907;41.412;2.164;2023-04-05T03:13:45;100701.72;;;18.60;40.71
47154;BME280;32907;41.412;2.164;2023-04-05T03:16:25;100651.59;;;18.32;40.34
47154;BME280;32907;41.412;2.164;2023-04-05T03:18:53;100678.41;;;18.49;40.51
47154;BME280;32907;41.412;2.164;2023-04-05T03:21:21;100667.59;;;18.39;40.69
47154;BME280;32907;41.412;2.164;2023-04-05T03:23:58;100661.63;;;18.32;40.73
47154;BME280;32907;41.412;2.164;2023-04-05T03:26:35;100667.31;;;18.40;40.47
47154;BME280;32907;41.412;2.164;2023-04-05T03:29:06;100651.31;;;18.34;41.07
47154;BME280;32907;41.412;2.164;2023-04-05T03:31:37;100687.31;;;18.60;40.83
47154;BME280;32907;41.412;2.164;2023-04-05T03:34:08;100700.88;;;18.65;41.19
47154;BME280;32907;41.412;2.164;2023-04-05T03:36:44;100700.06;;;18.64;41.21
47154;BME280;32907;41.412;2.164;2023-04-05T03:39:30;100690.88;;;18.55;41.24
47154;BME280;32907;41.412;2.164;2023-04-05T03:41:58;100644.53;;;18.26;40.97
47154;BME280;32907;41.412;2.164;2023-04-05T03:44:25;100706.31;;;18.60;41.04
47154;BME280;32907;41.412;2.164;2023-04-05T03:46:53;100683.03;;;18.54;41.17
47154;BME280;32907;41.412;2.164;2023-04-05T03:49:22;100674.63;;;18.45;41.28
47154;BME280;32907;41.412;2.164;2023-04-05T03:51:51;100667.56;;;18.44;41.36
47154;BME280;32907;41.412;2.164;2023-04-05T03:54:20;100657.25;;;18.41;41.22
47154;BME280;32907;41.412;2.164;2023-04-05T03:56:53;100679.50;;;18.53;41.28
47154;BME280;32907;41.412;2.164;2023-04-05T03:59:21;100690.31;;;18.58;41.24
47154;BME280;32907;41.412;2.164;2023-04-05T04:01:49;100671.34;;;18.43;41.10
47154;BME280;32907;41.412;2.164;2023-04-05T04:04:18;100695.75;;;18.58;41.29
47154;BME280;32907;41.412;2.164;2023-04-05T04:06:48;100678.69;;;18.48;41.00
47154;BME280;32907;41.412;2.164;2023-04-05T04:09:20;100647.81;;;18.18;41.27
47154;BME280;32907;41.412;2.164;2023-04-05T04:11:49;100693.06;;;18.48;41.33
47154;BME280;32907;41.412;2.164;2023-04-05T04:14:20;100632.91;;;18.10;41.18
47154;BME280;32907;41.412;2.164;2023-04-05T04:17:31;100681.69;;;18.46;41.27
47154;BME280;32907;41.412;2.164;2023-04-05T04:20:18;100685.50;;;18.45;41.39
47154;BME280;32907;41.412;2.164;2023-04-05T04:22:57;100647.25;;;18.26;40.83
47154;BME280;32907;41.412;2.164;2023-04-05T04:25:54;100648.09;;;18.22;40.79
47154;BME280;32907;41.412;2.164;2023-04-05T04:28:44;100673.59;;;18.31;41.11
47154;BME280;32907;41.412;2.164;2023-04-05T04:31:30;100698.50;;;18.43;41.14
47154;BME280;32907;41.412;2.164;2023-04-05T04:34:20;100680.06;;;18.35;41.39
47154;BME280;32907;41.412;2.164;2023-04-05T04:37:04;100708.84;;;18.46;41.29
47154;BME280;32907;41.412;2.164;2023-04-05T04:39:54;100706.66;;;18.43;40.78
47154;BME280;32907;41.412;2.164;2023-04-05T04:42:57;100707.22;;;18.45;40.85
47154;BME280;32907;41.412;2.164;2023-04-05T04:45:37;100693.88;;;18.43;41.01
47154;BME280;32907;41.412;2.164;2023-04-05T04:48:20;100704.50;;;18.45;40.86
47154;BME280;32907;41.412;2.164;2023-04-05T04:50:55;100708.81;;;18.51;40.94
47154;BME280;32907;41.412;2.164;2023-04-05T04:53:24;100702.28;;;18.52;40.87
47154;BME280;32907;41.412;2.164;2023-04-05T04:55:52;100682.53;;;18.31;40.28
47154;BME280;32907;41.412;2.164;2023-04-05T04:58:21;100682.25;;;18.33;40.29
47154;BME280;32907;41.412;2.164;2023-04-05T05:01:00;100690.13;;;18.34;40.50
47154;BME280;32907;41.412;2.164;2023-04-05T05:03:36;100698.53;;;18.38;40.58
47154;BME280;32907;41.412;2.164;2023-04-05T05:06:07;100698.50;;;18.43;40.55
47154;BME280;32907;41.412;2.164;2023-04-05T05:08:36;100689.31;;;18.34;39.64
47154;BME280;32907;41.412;2.164;2023-04-05T05:11:06;100726.19;;;18.55;39.65
47154;BME280;32907;41.412;2.164;2023-04-05T05:13:33;100709.94;;;18.40;39.61
47154;BME280;32907;41.412;2.164;2023-04-05T05:16:01;100722.38;;;18.51;39.06
47154;BME280;32907;41.412;2.164;2023-04-05T05:18:32;100680.38;;;18.18;39.28
47154;BME280;32907;41.412;2.164;2023-04-05T05:20:59;100685.00;;;18.17;39.45
47154;BME280;32907;41.412;2.164;2023-04-05T05:23:28;100711.31;;;18.32;39.39
47154;BME280;32907;41.412;2.164;2023-04-05T05:25:57;100683.38;;;18.11;39.17
47154;BME280;32907;41.412;2.164;2023-04-05T05:28:26;100728.66;;;18.41;39.33
47154;BME280;32907;41.412;2.164;2023-04-05T05:30:54;100725.38;;;18.44;39.74
47154;BME280;32907;41.412;2.164;2023-04-05T05:33:22;100690.97;;;18.20;39.85
47154;BME280;32907;41.412;2.164;2023-04-05T05:35:50;100712.66;;;18.35;39.84
47154;BME280;32907;41.412;2.164;2023-04-05T05:38:19;100735.16;;;18.51;39.66
47154;BME280;32907;41.412;2.164;2023-04-05T05:40:55;100701.25;;;18.38;40.02
47154;BME280;32907;41.412;2.164;2023-04-05T05:43:24;100729.72;;;18.56;40.73
47154;BME280;32907;41.412;2.164;2023-04-05T05:45:51;100724.00;;;18.52;39.81
47154;BME280;32907;41.412;2.164;2023-04-05T05:48:19;100743.81;;;18.63;39.25
47154;BME280;32907;41.412;2.164;2023-04-05T05:50:47;100744.63;;;18.68;40.82
47154;BME280;32907;41.412;2.164;2023-04-05T05:53:16;100706.13;;;18.46;40.29
47154;BME280;32907;41.412;2.164;2023-04-05T05:55:45;100729.44;;;18.62;40.33
47154;BME280;32907;41.412;2.164;2023-04-05T05:58:13;100731.59;;;18.65;39.85
47154;BME280;32907;41.412;2.164;2023-04-05T06:00:40;100719.91;;;18.60;39.70
47154;BME280;32907;41.412;2.164;2023-04-05T06:03:09;100753.03;;;18.77;40.08
47154;BME280;32907;41.412;2.164;2023-04-05T06:05:39;100738.91;;;18.65;39.45
47154;BME280;32907;41.412;2.164;2023-04-05T06:08:07;100739.47;;;18.62;39.29
47154;BME280;32907;41.412;2.164;2023-04-05T06:10:35;100743.53;;;18.64;39.11
47154;BME280;32907;41.412;2.164;2023-04-05T06:13:04;100675.78;;;18.24;39.22
47154;BME280;32907;41.412;2.164;2023-04-05T06:15:32;100725.38;;;18.55;39.50
47154;BME280;32907;41.412;2.164;2023-04-05T06:18:00;100700.16;;;18.39;39.50
47154;BME280;32907;41.412;2.164;2023-04-05T06:20:27;100725.66;;;18.53;39.49
47154;BME280;32907;41.412;2.164;2023-04-05T06:22:56;100754.94;;;18.71;39.43
47154;BME280;32907;41.412;2.164;2023-04-05T06:25:38;100770.16;;;18.78;39.52
47154;BME280;32907;41.412;2.164;2023-04-05T06:28:07;100739.19;;;18.58;39.56
47154;BME280;32907;41.412;2.164;2023-04-05T06:30:38;100737.28;;;18.59;39.42
47154;BME280;32907;41.412;2.164;2023-04-05T06:33:12;100765.78;;;18.82;39.59
47154;BME280;32907;41.412;2.164;2023-04-05T06:35:41;100766.63;;;18.77;40.30
47154;BME280;32907;41.412;2.164;2023-04-05T06:38:10;100739.72;;;18.60;40.36
47154;BME280;32907;41.412;2.164;2023-04-05T06:40:38;100778.53;;;18.86;40.50
47154;BME280;32907;41.412;2.164;2023-04-05T06:43:09;100795.66;;;18.87;40.69
47154;BME280;32907;41.412;2.164;2023-04-05T06:45:41;100768.25;;;18.73;40.17
47154;BME280;32907;41.412;2.164;2023-04-05T06:48:13;100748.19;;;18.54;40.21
47154;BME280;32907;41.412;2.164;2023-04-05T06:50:41;100743.28;;;18.51;40.44
47154;BME280;32907;41.412;2.164;2023-04-05T06:53:12;100786.69;;;18.81;40.06
47154;BME280;32907;41.412;2.164;2023-04-05T06:55:49;100796.19;;;18.84;39.96
47154;BME280;32907;41.412;2.164;2023-04-05T06:58:19;100790.22;;;18.77;39.59
47154;BME280;32907;41.412;2.164;2023-04-05T07:00:48;100801.63;;;18.89;39.81
47154;BME280;32907;41.412;2.164;2023-04-05T07:03:16;100789.16;;;18.78;39.52
47154;BME280;32907;41.412;2.164;2023-04-05T07:05:56;100802.72;;;18.88;38.98
47154;BME280;32907;41.412;2.164;2023-04-05T07:08:26;100779.69;;;18.70;39.26
47154;BME280;32907;41.412;2.164;2023-04-05T07:10:54;100795.38;;;18.88;39.02
47154;BME280;32907;41.412;2.164;2023-04-05T07:13:23;100788.06;;;18.79;39.00
47154;BME280;32907;41.412;2.164;2023-04-05T07:15:51;100794.84;;;18.86;38.80
47154;BME280;32907;41.412;2.164;2023-04-05T07:18:25;100796.19;;;18.89;39.01
47154;BME280;32907;41.412;2.164;2023-04-05T07:20:56;100799.16;;;18.92;38.99
47154;BME280;32907;41.412;2.164;2023-04-05T07:23:26;100797.81;;;18.90;39.44
47154;BME280;32907;41.412;2.164;2023-04-05T07:26:01;100764.72;;;18.72;39.79
47154;BME280;32907;41.412;2.164;2023-04-05T07:28:33;100788.59;;;18.86;39.21
47154;BME280;32907;41.412;2.164;2023-04-05T07:31:04;100793.19;;;18.95;39.19
47154;BME280;32907;41.412;2.164;2023-04-05T07:33:32;100790.47;;;18.95;39.19
47154;BME280;32907;41.412;2.164;2023-04-05T07:36:00;100745.66;;;18.83;39.10
47154;BME280;32907;41.412;2.164;2023-04-05T07:38:30;100774.41;;;19.04;39.29
47154;BME280;32907;41.412;2.164;2023-04-05T07:40:57;100726.41;;;18.79;38.99
47154;BME280;32907;41.412;2.164;2023-04-05T07:43:25;100728.50;;;18.92;41.57
47154;BME280;32907;41.412;2.164;2023-04-05T07:46:00;100747.97;;;19.15;39.56
47154;BME280;32907;41.412;2.164;2023-04-05T07:48:29;100752.06;;;19.12;39.29
47154;BME280;32907;41.412;2.164;2023-04-05T07:51:04;100773.22;;;19.25;38.20
47154;BME280;32907;41.412;2.164;2023-04-05T07:53:36;100771.25;;;19.36;39.71
47154;BME280;32907;41.412;2.164;2023-04-05T07:56:08;100775.88;;;19.36;38.41
47154;BME280;32907;41.412;2.164;2023-04-05T07:58:37;100779.94;;;19.38;37.82
47154;BME280;32907;41.412;2.164;2023-04-05T08:01:09;100784.03;;;19.36;37.74
47154;BME280;32907;41.412;2.164;2023-04-05T08:03:37;100782.13;;;19.36;37.44
47154;BME280;32907;41.412;2.164;2023-04-05T08:06:14;100778.06;;;19.34;36.94
47154;BME280;32907;41.412;2.164;2023-04-05T08:08:45;100784.03;;;19.36;37.35
47154;BME280;32907;41.412;2.164;2023-04-05T08:11:13;100771.25;;;19.31;37.13
47154;BME280;32907;41.412;2.164;2023-04-05T08:13:42;100777.25;;;19.33;36.91
47154;BME280;32907;41.412;2.164;2023-04-05T08:16:10;100793.50;;;19.43;36.60
47154;BME280;32907;41.412;2.164;2023-04-05T08:18:38;100798.94;;;19.43;36.74
47154;BME280;32907;41.412;2.164;2023-04-05T08:21:06;100790.78;;;19.43;36.93
47154;BME280;32907;41.412;2.164;2023-04-05T08:23:34;100796.50;;;19.42;37.45
47154;BME280;32907;41.412;2.164;2023-04-05T08:26:02;100804.91;;;19.50;37.92
47154;BME280;32907;41.412;2.164;2023-04-05T08:28:30;100796.75;;;19.50;40.09
47154;BME280;32907;41.412;2.164;2023-04-05T08:30:58;100799.94;;;19.63;39.49
47154;BME280;32907;41.412;2.164;2023-04-05T08:33:25;100797.50;;;19.66;38.20
47154;BME280;32907;41.412;2.164;2023-04-05T08:36:04;100802.59;;;19.73;37.81
47154;BME280;32907;41.412;2.164;2023-04-05T08:38:32;100805.59;;;19.71;36.77
47154;BME280;32907;41.412;2.164;2023-04-05T08:43:46;100791.16;;;19.76;36.63
47154;BME280;32907;41.412;2.164;2023-04-05T08:46:22;100791.97;;;19.76;36.97
47154;BME280;32907;41.412;2.164;2023-04-05T08:48:51;100799.25;;;19.81;36.99
47154;BME280;32907;41.412;2.164;2023-04-05T08:51:20;100799.25;;;19.81;35.86
47154;BME280;32907;41.412;2.164;2023-04-05T08:53:49;100803.63;;;19.82;36.46
47154;BME280;32907;41.412;2.164;2023-04-05T08:56:30;100775.72;;;19.66;35.77
47154;BME280;32907;41.412;2.164;2023-04-05T08:59:04;100797.66;;;19.80;36.27
47154;BME280;32907;41.412;2.164;2023-04-05T09:01:36;100799.25;;;19.81;35.86
47154;BME280;32907;41.412;2.164;2023-04-05T09:04:08;100771.91;;;19.67;36.50
47154;BME280;32907;41.412;2.164;2023-04-05T09:06:38;100796.28;;;19.82;36.93
47154;BME280;32907;41.412;2.164;2023-04-05T09:09:07;100783.44;;;19.88;37.63
47154;BME280;32907;41.412;2.164;2023-04-05T09:11:35;100752.00;;;19.72;37.70
47154;BME280;32907;41.412;2.164;2023-04-05T09:14:05;100778.81;;;19.89;40.45
47154;BME280;32907;41.412;2.164;2023-04-05T09:16:38;100756.88;;;19.75;40.45
47154;BME280;32907;41.412;2.164;2023-04-05T09:19:07;100787.44;;;20.01;41.20
47154;BME280;32907;41.412;2.164;2023-04-05T09:22:00;100787.44;;;20.01;40.13
47154;BME280;32907;41.412;2.164;2023-04-05T09:24:40;100789.13;;;19.92;40.45
47154;BME280;32907;41.412;2.164;2023-04-05T09:29:41;100793.81;;;19.81;40.08
47154;BME280;32907;41.412;2.164;2023-04-05T09:32:11;100732.28;;;19.46;40.42
47154;BME280;32907;41.412;2.164;2023-04-05T09:34:41;100785.94;;;19.79;40.48
47154;BME280;32907;41.412;2.164;2023-04-05T09:37:22;100780.00;;;19.72;41.48
47154;BME280;32907;41.412;2.164;2023-04-05T09:40:01;100798.22;;;19.77;40.55
47154;BME280;32907;41.412;2.164;2023-04-05T09:42:33;100759.50;;;19.46;40.66
47154;BME280;32907;41.412;2.164;2023-04-05T09:45:10;100798.84;;;19.64;40.59
47154;BME280;32907;41.412;2.164;2023-04-05T09:47:55;100767.66;;;19.41;40.61
47154;BME280;32907;41.412;2.164;2023-04-05T09:50:24;100778.25;;;19.47;40.51
47154;BME280;32907;41.412;2.164;2023-04-05T09:53:09;100810.81;;;19.68;40.72
47154;BME280;32907;41.412;2.164;2023-04-05T09:55:37;100789.91;;;19.53;40.08
47154;BME280;32907;41.412;2.164;2023-04-05T09:58:10;100818.38;;;19.71;40.13
47154;BME280;32907;41.412;2.164;2023-04-05T10:00:47;100796.69;;;19.61;40.39
47154;BME280;32907;41.412;2.164;2023-04-05T10:03:29;100752.22;;;19.31;40.35
47154;BME280;32907;41.412;2.164;2023-04-05T10:05:57;100812.66;;;19.72;40.15
47154;BME280;32907;41.412;2.164;2023-04-05T10:08:26;100772.81;;;19.47;40.16
47154;BME280;32907;41.412;2.164;2023-04-05T10:10:54;100801.84;;;19.62;40.21
47154;BME280;32907;41.412;2.164;2023-04-05T10:13:22;100797.22;;;19.63;40.51
47154;BME280;32907;41.412;2.164;2023-04-05T10:15:53;100778.25;;;19.47;39.46
47154;BME280;32907;41.412;2.164;2023-04-05T10:18:28;100784.47;;;19.58;39.41
47154;BME280;32907;41.412;2.164;2023-04-05T10:21:00;100747.88;;;19.30;39.72
47154;BME280;32907;41.412;2.164;2023-04-05T10:23:30;100793.44;;;19.53;39.62
47154;BME280;32907;41.412;2.164;2023-04-05T10:26:15;100794.81;;;19.51;39.31
47154;BME280;32907;41.412;2.164;2023-04-05T10:28:46;100804.03;;;19.60;39.21
47154;BME280;32907;41.412;2.164;2023-04-05T10:31:45;100776.97;;;19.35;39.29
47154;BME280;32907;41.412;2.164;2023-04-05T10:34:30;100730.03;;;19.14;38.96
47154;BME280;32907;41.412;2.164;2023-04-05T10:37:02;100806.25;;;19.58;40.41
47154;BME280;32907;41.412;2.164;2023-04-05T10:39:39;100776.63;;;19.46;40.26
47154;BME280;32907;41.412;2.164;2023-04-05T10:44:38;100743.84;;;19.27;39.91
47154;BME280;32907;41.412;2.164;2023-04-05T10:47:09;100782.84;;;19.52;38.99
47154;BME280;32907;41.412;2.164;2023-04-05T10:49:45;100781.19;;;19.56;38.82
47154;BME280;32907;41.412;2.164;2023-04-05T10:52:16;100730.25;;;19.22;39.36
47154;BME280;32907;41.412;2.164;2023-04-05T10:54:44;100792.06;;;19.61;40.55
47154;BME280;32907;41.412;2.164;2023-04-05T10:57:13;100733.50;;;19.24;40.23
47154;BME280;32907;41.412;2.164;2023-04-05T10:59:43;100786.91;;;19.60;40.83
47154;BME280;32907;41.412;2.164;2023-04-05T11:02:13;100724.28;;;19.20;40.79
47154;BME280;32907;41.412;2.164;2023-04-05T11:04:41;100696.09;;;19.06;40.74
47154;BME280;32907;41.412;2.164;2023-04-05T11:07:13;100776.31;;;19.58;40.51
47154;BME280;32907;41.412;2.164;2023-04-05T11:09:55;100769.28;;;19.47;40.76
47154;BME280;32907;41.412;2.164;2023-04-05T11:20:41;100743.03;;;19.27;40.36
47154;BME280;32907;41.412;2.164;2023-04-05T11:23:11;100798.06;;;19.53;40.20
47154;BME280;32907;41.412;2.164;2023-04-05T11:25:45;100780.66;;;19.49;40.56
47154;BME280;32907;41.412;2.164;2023-04-05T11:28:28;100787.75;;;19.50;40.86
47154;BME280;32907;41.412;2.164;2023-04-05T11:30:56;100749.00;;;19.29;40.46
47154;BME280;32907;41.412;2.164;2023-04-05T11:36:36;100751.41;;;19.31;40.57
47154;BME280;32907;41.412;2.164;2023-04-05T11:42:04;100776.88;;;19.50;41.02
47154;BME280;32907;41.412;2.164;2023-04-05T11:44:47;100767.94;;;19.44;41.10
47154;BME280;32907;41.412;2.164;2023-04-05T11:47:16;100710.22;;;19.08;41.08
47154;BME280;32907;41.412;2.164;2023-04-05T11:49:48;100772.50;;;19.54;41.60
47154;BME280;32907;41.412;2.164;2023-04-05T11:52:18;100721.06;;;19.18;41.17
47154;BME280;32907;41.412;2.164;2023-04-05T11:54:47;100751.69;;;19.34;41.80
47154;BME280;32907;41.412;2.164;2023-04-05T11:57:20;100730.97;;;19.38;41.82
47154;BME280;32907;41.412;2.164;2023-04-05T11:59:52;100768.41;;;19.62;41.89
47154;BME280;32907;41.412;2.164;2023-04-05T12:02:20;100731.50;;;19.40;42.33
47154;BME280;32907;41.412;2.164;2023-04-05T12:04:53;100755.06;;;19.65;42.26
47154;BME280;32907;41.412;2.164;2023-04-05T12:07:25;100755.06;;;19.65;42.27
47154;BME280;32907;41.412;2.164;2023-04-05T12:09:59;100754.50;;;19.63;42.35
47154;BME280;32907;41.412;2.164;2023-04-05T12:12:36;100683.81;;;19.19;43.47
47154;BME280;32907;41.412;2.164;2023-04-05T12:15:07;100754.78;;;19.67;42.79
47154;BME280;32907;41.412;2.164;2023-04-05T12:20:12;100761.03;;;19.67;43.19
47154;BME280;32907;41.412;2.164;2023-04-05T12:22:42;100748.50;;;19.66;43.05
47154;BME280;32907;41.412;2.164;2023-04-05T12:25:11;100746.03;;;19.70;43.39
47154;BME280;32907;41.412;2.164;2023-04-05T12:27:39;100747.34;;;19.72;43.54
47154;BME280;32907;41.412;2.164;2023-04-05T12:30:21;100739.81;;;19.64;43.61
47154;BME280;32907;41.412;2.164;2023-04-05T12:32:51;100745.19;;;19.74;43.20
47154;BME280;32907;41.412;2.164;2023-04-05T12:35:27;100743.28;;;19.75;43.24
47154;BME280;32907;41.412;2.164;2023-04-05T12:38:04;100737.84;;;19.75;43.49
47154;BME280;32907;41.412;2.164;2023-04-05T12:40:35;100710.44;;;19.56;42.48
47154;BME280;32907;41.412;2.164;2023-04-05T12:43:05;100728.88;;;19.74;42.49
47154;BME280;32907;41.412;2.164;2023-04-05T12:45:34;100719.94;;;19.69;42.25
47154;BME280;32907;41.412;2.164;2023-04-05T12:48:11;100719.59;;;19.75;42.91
47154;BME280;32907;41.412;2.164;2023-04-05T12:50:44;100717.41;;;19.77;41.65
47154;BME280;32907;41.412;2.164;2023-04-05T12:53:20;100698.16;;;19.69;41.29
47154;BME280;32907;41.412;2.164;2023-04-05T12:55:51;100697.84;;;19.75;42.02
47154;BME280;32907;41.412;2.164;2023-04-05T12:58:21;100712.16;;;19.86;40.53
47154;BME280;32907;41.412;2.164;2023-04-05T13:00:50;100706.72;;;19.86;41.03
47154;BME280;32907;41.412;2.164;2023-04-05T13:03:20;100695.53;;;19.88;40.07
47154;BME280;32907;41.412;2.164;2023-04-05T13:05:48;100686.84;;;19.86;39.10
47154;BME280;32907;41.412;2.164;2023-04-05T13:08:16;100667.03;;;19.80;38.79
47154;BME280;32907;41.412;2.164;2023-04-05T13:10:48;100727.78;;;20.04;39.23
47154;BME280;32907;41.412;2.164;2023-04-05T13:13:16;100622.31;;;19.62;38.89
47154;BME280;32907;41.412;2.164;2023-04-05T13:15:44;100688.34;;;20.02;36.64
47154;BME280;32907;41.412;2.164;2023-04-05T13:18:12;100686.13;;;20.04;36.18
47154;BME280;32907;41.412;2.164;2023-04-05T13:20:41;100647.34;;;19.88;36.75
47154;BME280;32907;41.412;2.164;2023-04-05T13:23:11;100693.13;;;20.15;36.13
47154;BME280;32907;41.412;2.164;2023-04-05T13:25:40;100681.63;;;20.18;34.34
47154;BME280;32907;41.412;2.164;2023-04-05T13:28:10;100674.56;;;20.17;34.69
47154;BME280;32907;41.412;2.164;2023-04-05T13:30:38;100655.97;;;20.00;34.52
47154;BME280;32907;41.412;2.164;2023-04-05T13:33:07;100683.22;;;20.24;33.18
47154;BME280;32907;41.412;2.164;2023-04-05T13:35:37;100690.78;;;20.27;31.55
47154;BME280;32907;41.412;2.164;2023-04-05T13:38:05;100670.78;;;20.13;32.09
47154;BME280;32907;41.412;2.164;2023-04-05T13:40:33;100676.97;;;20.24;31.90
47154;BME280;32907;41.412;2.164;2023-04-05T13:43:01;100679.69;;;20.24;30.82
47154;BME280;32907;41.412;2.164;2023-04-05T13:45:30;100624.16;;;19.96;29.82
47154;BME280;32907;41.412;2.164;2023-04-05T13:48:01;100695.13;;;20.28;30.27
47154;BME280;32907;41.412;2.164;2023-04-05T13:50:31;100671.22;;;20.25;29.80